sensor_id;sensor_type;location;lat;lon;timestamp;temperature;humidity
47226;DHT22;32965;64.142;-21.912;2022-08-11T00:01:17;10.60;99.90
47226;DHT22;32965;64.142;-21.912;2022-08-11T00:03:58;10.60;99.90
47226;DHT22;32965;64.142;-21.912;2022-08-11T00:06:41;10.50;99.90
47226;DHT22;32965;64.142;-21.912;2022-08-11T00:09:11;10.50;99.90
47226;DHT22;32965;64.142;-21.912;2022-08-11T00:11:41;10.60;99.90
47226;DHT22;32965;64.142;-21.912;2022-08-11T00:14:25;10.60;99.90
47226;DHT22;32965;64.142;-21.912;2022-08-11T00:19:27;10.60;99.90
47226;DHT22;32965;64.142;-21.912;2022-08-11T00:21:55;10.60;99.90
47226;DHT22;32965;64.142;-21.912;2022-08-11T00:24:22;10.60;99.90
47226;DHT22;32965;64.142;-21.912;2022-08-11T00:26:53;10.60;99.90
47226;DHT22;32965;64.142;-21.912;2022-08-11T00:29:20;10.70;99.90
47226;DHT22;32965;64.142;-21.912;2022-08-11T00:31:52;10.70;99.90
47226;DHT22;32965;64.142;-21.912;2022-08-11T00:34:25;10.70;99.90
47226;DHT22;32965;64.142;-21.912;2022-08-11T00:36:57;10.70;99.90
47226;DHT22;32965;64.142;-21.912;2022-08-11T00:39:25;10.70;99.90
47226;DHT22;32965;64.142;-21.912;2022-08-11T00:45:11;10.70;99.90
47226;DHT22;32965;64.142;-21.912;2022-08-11T00:50:35;10.70;99.90
47226;DHT22;32965;64.142;-21.912;2022-08-11T00:53:16;10.70;99.90
47226;DHT22;32965;64.142;-21.912;2022-08-11T01:02:17;10.70;99.90
47226;DHT22;32965;64.142;-21.912;2022-08-11T01:37:11;10.70;99.90
47226;DHT22;32965;64.142;-21.912;2022-08-11T01:49:00;10.50;99.90
47226;DHT22;32965;64.142;-21.912;2022-08-11T01:54:27;10.60;99.90
47226;DHT22;32965;64.142;-21.912;2022-08-11T02:00:07;10.60;99.90
47226;DHT22;32965;64.142;-21.912;2022-08-11T02:03:00;10.50;99.90
47226;DHT22;32965;64.142;-21.912;2022-08-11T02:05:48;10.60;99.90
47226;DHT22;32965;64.142;-21.912;2022-08-11T02:14:06;10.50;99.90
47226;DHT22;32965;64.142;-21.912;2022-08-11T02:22:41;10.40;99.90
47226;DHT22;32965;64.142;-21.912;2022-08-11T02:28:28;10.40;99.90
47226;DHT22;32965;64.142;-21.912;2022-08-11T02:31:02;10.40;99.90
47226;DHT22;32965;64.142;-21.912;2022-08-11T02:33:59;10.40;99.90
47226;DHT22;32965;64.142;-21.912;2022-08-11T02:36:48;10.30;99.90
47226;DHT22;32965;64.142;-21.912;2022-08-11T02:39:19;10.30;99.90
47226;DHT22;32965;64.142;-21.912;2022-08-11T02:42:05;10.40;99.90
47226;DHT22;32965;64.142;-21.912;2022-08-11T02:56:18;10.40;99.90
47226;DHT22;32965;64.142;-21.912;2022-08-11T02:59:10;10.40;99.90
47226;DHT22;32965;64.142;-21.912;2022-08-11T03:10:40;10.50;99.90
47226;DHT22;32965;64.142;-21.912;2022-08-11T03:13:18;10.50;99.90
47226;DHT22;32965;64.142;-21.912;2022-08-11T03:16:26;10.50;99.90
47226;DHT22;32965;64.142;-21.912;2022-08-11T03:24:55;10.60;99.90
47226;DHT22;32965;64.142;-21.912;2022-08-11T03:27:45;10.60;99.90
47226;DHT22;32965;64.142;-21.912;2022-08-11T03:30:13;10.60;99.90
47226;DHT22;32965;64.142;-21.912;2022-08-11T03:33:07;10.50;99.90
47226;DHT22;32965;64.142;-21.912;2022-08-11T03:39:26;10.50;99.90
47226;DHT22;32965;64.142;-21.912;2022-08-11T04:10:16;10.50;99.90
47226;DHT22;32965;64.142;-21.912;2022-08-11T04:15:58;10.50;99.90
47226;DHT22;32965;64.142;-21.912;2022-08-11T04:21:48;10.50;99.90
47226;DHT22;32965;64.142;-21.912;2022-08-11T04:24:25;10.50;99.90
47226;DHT22;32965;64.142;-21.912;2022-08-11T04:31:23;10.50;99.90
47226;DHT22;32965;64.142;-21.912;2022-08-11T04:57:03;10.50;99.90
47226;DHT22;32965;64.142;-21.912;2022-08-11T05:00:11;10.50;99.90
47226;DHT22;32965;64.142;-21.912;2022-08-11T05:03:13;10.50;99.90
47226;DHT22;32965;64.142;-21.912;2022-08-11T05:09:03;10.50;99.90
47226;DHT22;32965;64.142;-21.912;2022-08-11T05:11:38;10.50;99.90
47226;DHT22;32965;64.142;-21.912;2022-08-11T05:17:03;10.50;99.90
47226;DHT22;32965;64.142;-21.912;2022-08-11T05:19:49;10.40;99.90
47226;DHT22;32965;64.142;-21.912;2022-08-11T05:22:34;10.40;99.90
47226;DHT22;32965;64.142;-21.912;2022-08-11T05:25:28;10.40;99.90
47226;DHT22;32965;64.142;-21.912;2022-08-11T05:28:20;10.40;99.90
47226;DHT22;32965;64.142;-21.912;2022-08-11T05:31:13;10.40;99.90
47226;DHT22;32965;64.142;-21.912;2022-08-11T05:34:02;10.40;99.90
47226;DHT22;32965;64.142;-21.912;2022-08-11T05:36:53;10.40;99.90
47226;DHT22;32965;64.142;-21.912;2022-08-11T05:39:25;10.40;99.90
47226;DHT22;32965;64.142;-21.912;2022-08-11T05:42:12;10.40;99.90
47226;DHT22;32965;64.142;-21.912;2022-08-11T05:45:29;10.50;99.90
47226;DHT22;32965;64.142;-21.912;2022-08-11T05:48:14;10.50;99.90
47226;DHT22;32965;64.142;-21.912;2022-08-11T05:51:00;10.40;99.90
47226;DHT22;32965;64.142;-21.912;2022-08-11T05:53:48;10.40;99.90
47226;DHT22;32965;64.142;-21.912;2022-08-11T05:56:34;10.50;99.90
47226;DHT22;32965;64.142;-21.912;2022-08-11T05:59:12;10.40;99.90
47226;DHT22;32965;64.142;-21.912;2022-08-11T06:01:40;10.40;99.90
47226;DHT22;32965;64.142;-21.912;2022-08-11T06:09:12;10.40;99.90
47226;DHT22;32965;64.142;-21.912;2022-08-11T06:11:41;10.50;99.90
47226;DHT22;32965;64.142;-21.912;2022-08-11T06:14:11;10.50;99.90
47226;DHT22;32965;64.142;-21.912;2022-08-11T06:16:40;10.50;99.90
47226;DHT22;32965;64.142;-21.912;2022-08-11T06:19:08;10.50;99.90
47226;DHT22;32965;64.142;-21.912;2022-08-11T06:21:34;10.50;99.90
47226;DHT22;32965;64.142;-21.912;2022-08-11T06:24:04;10.50;99.90
47226;DHT22;32965;64.142;-21.912;2022-08-11T06:26:35;10.50;99.90
47226;DHT22;32965;64.142;-21.912;2022-08-11T06:29:03;10.50;99.90
47226;DHT22;32965;64.142;-21.912;2022-08-11T06:31:31;10.60;99.90
47226;DHT22;32965;64.142;-21.912;2022-08-11T06:34:10;10.60;99.90
47226;DHT22;32965;64.142;-21.912;2022-08-11T06:36:54;10.60;99.90
47226;DHT22;32965;64.142;-21.912;2022-08-11T06:40:14;10.60;99.90
47226;DHT22;32965;64.142;-21.912;2022-08-11T06:47:53;10.60;99.90
47226;DHT22;32965;64.142;-21.912;2022-08-11T06:50:21;10.70;99.90
47226;DHT22;32965;64.142;-21.912;2022-08-11T06:53:07;10.70;99.90
47226;DHT22;32965;64.142;-21.912;2022-08-11T06:55:35;10.80;99.90
47226;DHT22;32965;64.142;-21.912;2022-08-11T06:58:38;10.80;99.90
47226;DHT22;32965;64.142;-21.912;2022-08-11T07:04:03;10.80;99.90
47226;DHT22;32965;64.142;-21.912;2022-08-11T07:07:13;10.80;99.90
47226;DHT22;32965;64.142;-21.912;2022-08-11T07:12:49;10.80;99.90
47226;DHT22;32965;64.142;-21.912;2022-08-11T07:15:37;10.80;99.90
47226;DHT22;32965;64.142;-21.912;2022-08-11T07:18:08;10.80;99.90
47226;DHT22;32965;64.142;-21.912;2022-08-11T07:21:04;10.80;99.90
47226;DHT22;32965;64.142;-21.912;2022-08-11T07:23:51;10.90;99.90
47226;DHT22;32965;64.142;-21.912;2022-08-11T07:26:40;10.90;99.90
47226;DHT22;32965;64.142;-21.912;2022-08-11T07:29:26;10.90;99.90
47226;DHT22;32965;64.142;-21.912;2022-08-11T07:31:54;10.90;99.90
47226;DHT22;32965;64.142;-21.912;2022-08-11T07:37:00;10.90;99.90
47226;DHT22;32965;64.142;-21.912;2022-08-11T07:39:32;11.00;99.90
47226;DHT22;32965;64.142;-21.912;2022-08-11T07:42:06;11.00;99.90
47226;DHT22;32965;64.142;-21.912;2022-08-11T07:44:33;11.10;99.80
47226;DHT22;32965;64.142;-21.912;2022-08-11T07:47:20;11.10;99.90
47226;DHT22;32965;64.142;-21.912;2022-08-11T07:50:08;11.20;99.60
47226;DHT22;32965;64.142;-21.912;2022-08-11T07:52:52;11.20;99.70
47226;DHT22;32965;64.142;-21.912;2022-08-11T07:55:20;11.20;99.70
47226;DHT22;32965;64.142;-21.912;2022-08-11T07:57:47;11.20;99.70
47226;DHT22;32965;64.142;-21.912;2022-08-11T08:00:45;11.20;99.60
47226;DHT22;32965;64.142;-21.912;2022-08-11T08:03:30;11.30;99.50
47226;DHT22;32965;64.142;-21.912;2022-08-11T08:06:17;11.30;99.30
47226;DHT22;32965;64.142;-21.912;2022-08-11T08:09:01;11.30;99.30
47226;DHT22;32965;64.142;-21.912;2022-08-11T08:11:46;11.30;99.30
47226;DHT22;32965;64.142;-21.912;2022-08-11T08:14:31;11.40;99.20
47226;DHT22;32965;64.142;-21.912;2022-08-11T08:17:17;11.40;99.00
47226;DHT22;32965;64.142;-21.912;2022-08-11T08:20:03;11.50;99.10
47226;DHT22;32965;64.142;-21.912;2022-08-11T08:22:29;11.50;99.10
47226;DHT22;32965;64.142;-21.912;2022-08-11T08:24:55;11.50;99.10
47226;DHT22;32965;64.142;-21.912;2022-08-11T08:27:21;11.50;99.00
47226;DHT22;32965;64.142;-21.912;2022-08-11T08:29:50;11.60;99.00
47226;DHT22;32965;64.142;-21.912;2022-08-11T08:32:39;11.60;98.80
47226;DHT22;32965;64.142;-21.912;2022-08-11T08:35:08;11.60;98.70
47226;DHT22;32965;64.142;-21.912;2022-08-11T08:37:35;11.60;98.80
47226;DHT22;32965;64.142;-21.912;2022-08-11T08:40:00;11.70;98.60
47226;DHT22;32965;64.142;-21.912;2022-08-11T08:42:28;11.70;98.60
47226;DHT22;32965;64.142;-21.912;2022-08-11T08:45:05;11.70;98.60
47226;DHT22;32965;64.142;-21.912;2022-08-11T08:47:35;11.80;98.50
47226;DHT22;32965;64.142;-21.912;2022-08-11T08:50:10;11.90;98.50
47226;DHT22;32965;64.142;-21.912;2022-08-11T08:52:39;12.00;97.90
47226;DHT22;32965;64.142;-21.912;2022-08-11T08:55:11;12.00;98.00
47226;DHT22;32965;64.142;-21.912;2022-08-11T08:57:40;12.00;97.90
47226;DHT22;32965;64.142;-21.912;2022-08-11T09:00:09;12.10;97.60
47226;DHT22;32965;64.142;-21.912;2022-08-11T09:02:35;12.10;97.40
47226;DHT22;32965;64.142;-21.912;2022-08-11T09:05:03;12.10;97.40
47226;DHT22;32965;64.142;-21.912;2022-08-11T09:07:30;12.10;97.40
47226;DHT22;32965;64.142;-21.912;2022-08-11T09:09:58;12.10;97.40
47226;DHT22;32965;64.142;-21.912;2022-08-11T09:12:26;12.10;97.40
47226;DHT22;32965;64.142;-21.912;2022-08-11T09:14:53;12.10;97.40
47226;DHT22;32965;64.142;-21.912;2022-08-11T09:20:25;12.00;97.50
47226;DHT22;32965;64.142;-21.912;2022-08-11T09:22:56;12.00;97.20
47226;DHT22;32965;64.142;-21.912;2022-08-11T09:25:41;12.00;97.40
47226;DHT22;32965;64.142;-21.912;2022-08-11T09:28:28;12.00;97.50
47226;DHT22;32965;64.142;-21.912;2022-08-11T09:30:56;12.00;97.50
47226;DHT22;32965;64.142;-21.912;2022-08-11T09:33:27;12.10;97.80
47226;DHT22;32965;64.142;-21.912;2022-08-11T09:35:55;12.10;97.70
47226;DHT22;32965;64.142;-21.912;2022-08-11T09:38:23;12.10;97.70
47226;DHT22;32965;64.142;-21.912;2022-08-11T09:41:10;12.10;97.70
47226;DHT22;32965;64.142;-21.912;2022-08-11T09:43:43;12.20;97.70
47226;DHT22;32965;64.142;-21.912;2022-08-11T09:46:45;12.40;97.40
47226;DHT22;32965;64.142;-21.912;2022-08-11T09:49:11;12.40;97.20
47226;DHT22;32965;64.142;-21.912;2022-08-11T09:51:37;12.60;97.10
47226;DHT22;32965;64.142;-21.912;2022-08-11T09:54:04;12.60;96.90
47226;DHT22;32965;64.142;-21.912;2022-08-11T09:56:33;12.70;96.80
47226;DHT22;32965;64.142;-21.912;2022-08-11T09:59:20;12.90;96.70
47226;DHT22;32965;64.142;-21.912;2022-08-11T10:01:53;13.10;95.60
47226;DHT22;32965;64.142;-21.912;2022-08-11T10:04:26;13.10;94.80
47226;DHT22;32965;64.142;-21.912;2022-08-11T10:06:58;13.20;94.40
47226;DHT22;32965;64.142;-21.912;2022-08-11T10:09:50;13.20;93.70
47226;DHT22;32965;64.142;-21.912;2022-08-11T10:12:25;13.20;93.80
47226;DHT22;32965;64.142;-21.912;2022-08-11T10:14:56;13.10;93.50
47226;DHT22;32965;64.142;-21.912;2022-08-11T10:17:47;13.00;93.40
47226;DHT22;32965;64.142;-21.912;2022-08-11T10:20:34;13.00;93.30
47226;DHT22;32965;64.142;-21.912;2022-08-11T10:23:02;13.00;93.40
47226;DHT22;32965;64.142;-21.912;2022-08-11T10:25:47;13.00;93.30
47226;DHT22;32965;64.142;-21.912;2022-08-11T10:28:34;13.10;93.20
47226;DHT22;32965;64.142;-21.912;2022-08-11T10:31:01;13.00;93.10
47226;DHT22;32965;64.142;-21.912;2022-08-11T10:34:01;13.10;93.10
47226;DHT22;32965;64.142;-21.912;2022-08-11T10:36:31;13.10;93.30
47226;DHT22;32965;64.142;-21.912;2022-08-11T10:38:58;13.20;93.40
47226;DHT22;32965;64.142;-21.912;2022-08-11T10:41:25;13.30;93.50
47226;DHT22;32965;64.142;-21.912;2022-08-11T10:44:12;13.40;93.00
47226;DHT22;32965;64.142;-21.912;2022-08-11T10:46:38;13.50;92.50
47226;DHT22;32965;64.142;-21.912;2022-08-11T10:49:24;13.70;91.70
47226;DHT22;32965;64.142;-21.912;2022-08-11T10:51:52;13.80;90.50
47226;DHT22;32965;64.142;-21.912;2022-08-11T10:54:39;13.70;89.20
47226;DHT22;32965;64.142;-21.912;2022-08-11T10:57:26;13.70;89.00
47226;DHT22;32965;64.142;-21.912;2022-08-11T11:02:43;13.90;89.20
47226;DHT22;32965;64.142;-21.912;2022-08-11T11:05:23;14.00;89.30
47226;DHT22;32965;64.142;-21.912;2022-08-11T11:08:10;14.10;87.80
47226;DHT22;32965;64.142;-21.912;2022-08-11T11:10:57;14.20;87.20
47226;DHT22;32965;64.142;-21.912;2022-08-11T11:16:11;14.10;85.10
47226;DHT22;32965;64.142;-21.912;2022-08-11T11:19:00;14.10;84.50
47226;DHT22;32965;64.142;-21.912;2022-08-11T11:21:28;14.10;83.60
47226;DHT22;32965;64.142;-21.912;2022-08-11T11:26:48;13.90;85.30
47226;DHT22;32965;64.142;-21.912;2022-08-11T11:35:23;13.50;89.80
47226;DHT22;32965;64.142;-21.912;2022-08-11T11:37:51;13.40;89.60
47226;DHT22;32965;64.142;-21.912;2022-08-11T11:40:19;13.20;89.40
47226;DHT22;32965;64.142;-21.912;2022-08-11T11:42:53;13.20;89.70
47226;DHT22;32965;64.142;-21.912;2022-08-11T11:45:22;13.10;90.00
47226;DHT22;32965;64.142;-21.912;2022-08-11T11:47:52;13.10;90.40
47226;DHT22;32965;64.142;-21.912;2022-08-11T11:52:50;13.10;91.00
47226;DHT22;32965;64.142;-21.912;2022-08-11T11:55:19;13.10;90.90
47226;DHT22;32965;64.142;-21.912;2022-08-11T11:57:45;13.20;91.10
47226;DHT22;32965;64.142;-21.912;2022-08-11T12:00:30;13.30;91.00
47226;DHT22;32965;64.142;-21.912;2022-08-11T12:03:15;13.40;91.00
47226;DHT22;32965;64.142;-21.912;2022-08-11T12:05:43;13.50;90.50
47226;DHT22;32965;64.142;-21.912;2022-08-11T12:08:11;13.60;90.70
47226;DHT22;32965;64.142;-21.912;2022-08-11T12:10:47;13.60;90.30
47226;DHT22;32965;64.142;-21.912;2022-08-11T12:13:14;13.60;89.50
47226;DHT22;32965;64.142;-21.912;2022-08-11T12:18:33;13.40;88.40
47226;DHT22;32965;64.142;-21.912;2022-08-11T12:21:01;13.50;89.00
47226;DHT22;32965;64.142;-21.912;2022-08-11T12:23:27;13.50;89.10
47226;DHT22;32965;64.142;-21.912;2022-08-11T12:26:15;13.60;88.80
47226;DHT22;32965;64.142;-21.912;2022-08-11T12:29:02;13.60;88.00
47226;DHT22;32965;64.142;-21.912;2022-08-11T12:31:31;13.70;87.30
47226;DHT22;32965;64.142;-21.912;2022-08-11T12:34:02;13.70;87.70
47226;DHT22;32965;64.142;-21.912;2022-08-11T12:36:33;13.80;87.30
47226;DHT22;32965;64.142;-21.912;2022-08-11T12:39:02;13.80;87.30
47226;DHT22;32965;64.142;-21.912;2022-08-11T12:41:29;13.90;87.60
47226;DHT22;32965;64.142;-21.912;2022-08-11T12:44:14;14.10;87.20
47226;DHT22;32965;64.142;-21.912;2022-08-11T12:47:00;14.30;84.50
47226;DHT22;32965;64.142;-21.912;2022-08-11T12:49:29;14.40;82.30
47226;DHT22;32965;64.142;-21.912;2022-08-11T12:52:21;14.50;81.90
47226;DHT22;32965;64.142;-21.912;2022-08-11T12:55:34;14.50;81.60
47226;DHT22;32965;64.142;-21.912;2022-08-11T12:58:14;14.50;82.50
47226;DHT22;32965;64.142;-21.912;2022-08-11T13:00:44;14.40;82.70
47226;DHT22;32965;64.142;-21.912;2022-08-11T13:03:28;14.40;82.80
47226;DHT22;32965;64.142;-21.912;2022-08-11T13:06:15;14.30;82.70
47226;DHT22;32965;64.142;-21.912;2022-08-11T13:08:42;14.20;82.20
47226;DHT22;32965;64.142;-21.912;2022-08-11T13:11:10;14.20;82.20
47226;DHT22;32965;64.142;-21.912;2022-08-11T13:13:54;14.10;81.90
47226;DHT22;32965;64.142;-21.912;2022-08-11T13:16:34;14.20;80.70
47226;DHT22;32965;64.142;-21.912;2022-08-11T13:19:21;14.20;81.00
47226;DHT22;32965;64.142;-21.912;2022-08-11T13:21:50;14.10;79.90
47226;DHT22;32965;64.142;-21.912;2022-08-11T13:24:17;14.20;80.00
47226;DHT22;32965;64.142;-21.912;2022-08-11T13:26:43;14.20;80.50
47226;DHT22;32965;64.142;-21.912;2022-08-11T13:29:10;14.10;80.80
47226;DHT22;32965;64.142;-21.912;2022-08-11T13:31:37;14.10;81.40
47226;DHT22;32965;64.142;-21.912;2022-08-11T13:34:04;14.10;82.30
47226;DHT22;32965;64.142;-21.912;2022-08-11T13:36:33;14.10;83.40
47226;DHT22;32965;64.142;-21.912;2022-08-11T13:39:02;14.10;84.20
47226;DHT22;32965;64.142;-21.912;2022-08-11T13:41:29;14.20;85.00
47226;DHT22;32965;64.142;-21.912;2022-08-11T13:44:09;14.10;85.10
47226;DHT22;32965;64.142;-21.912;2022-08-11T13:46:37;14.10;84.40
47226;DHT22;32965;64.142;-21.912;2022-08-11T13:49:04;14.00;84.00
47226;DHT22;32965;64.142;-21.912;2022-08-11T13:51:32;13.90;83.30
47226;DHT22;32965;64.142;-21.912;2022-08-11T13:54:20;14.00;84.10
47226;DHT22;32965;64.142;-21.912;2022-08-11T13:56:51;14.00;83.10
47226;DHT22;32965;64.142;-21.912;2022-08-11T13:59:18;14.00;82.90
47226;DHT22;32965;64.142;-21.912;2022-08-11T14:01:59;14.10;82.80
47226;DHT22;32965;64.142;-21.912;2022-08-11T14:04:41;14.20;82.70
47226;DHT22;32965;64.142;-21.912;2022-08-11T14:07:09;14.30;83.20
47226;DHT22;32965;64.142;-21.912;2022-08-11T14:09:41;14.20;83.90
47226;DHT22;32965;64.142;-21.912;2022-08-11T14:12:22;14.30;84.50
47226;DHT22;32965;64.142;-21.912;2022-08-11T14:17:39;14.00;84.40
47226;DHT22;32965;64.142;-21.912;2022-08-11T14:20:08;14.00;84.30
47226;DHT22;32965;64.142;-21.912;2022-08-11T14:22:39;13.90;85.80
47226;DHT22;32965;64.142;-21.912;2022-08-11T14:25:07;13.90;86.50
47226;DHT22;32965;64.142;-21.912;2022-08-11T14:27:34;13.80;88.20
47226;DHT22;32965;64.142;-21.912;2022-08-11T14:32:27;13.70;90.20
47226;DHT22;32965;64.142;-21.912;2022-08-11T14:34:54;13.70;91.00
47226;DHT22;32965;64.142;-21.912;2022-08-11T14:37:24;13.60;91.90
47226;DHT22;32965;64.142;-21.912;2022-08-11T14:39:55;13.50;92.30
47226;DHT22;32965;64.142;-21.912;2022-08-11T14:42:23;13.30;93.00
47226;DHT22;32965;64.142;-21.912;2022-08-11T14:45:09;13.20;93.30
47226;DHT22;32965;64.142;-21.912;2022-08-11T14:47:59;13.20;93.40
47226;DHT22;32965;64.142;-21.912;2022-08-11T14:50:27;13.10;93.20
47226;DHT22;32965;64.142;-21.912;2022-08-11T14:52:57;13.10;93.10
47226;DHT22;32965;64.142;-21.912;2022-08-11T14:55:26;13.40;93.10
47226;DHT22;32965;64.142;-21.912;2022-08-11T14:58:15;13.50;93.00
47226;DHT22;32965;64.142;-21.912;2022-08-11T15:00:42;13.50;92.30
47226;DHT22;32965;64.142;-21.912;2022-08-11T15:03:10;13.50;92.00
47226;DHT22;32965;64.142;-21.912;2022-08-11T15:05:46;13.50;91.90
47226;DHT22;32965;64.142;-21.912;2022-08-11T15:08:14;13.50;91.80
47226;DHT22;32965;64.142;-21.912;2022-08-11T15:10:41;13.50;91.90
47226;DHT22;32965;64.142;-21.912;2022-08-11T15:13:07;13.50;91.80
47226;DHT22;32965;64.142;-21.912;2022-08-11T15:15:34;13.60;91.60
47226;DHT22;32965;64.142;-21.912;2022-08-11T15:18:21;13.50;90.90
47226;DHT22;32965;64.142;-21.912;2022-08-11T15:20:51;13.40;91.10
47226;DHT22;32965;64.142;-21.912;2022-08-11T15:23:38;13.40;90.90
47226;DHT22;32965;64.142;-21.912;2022-08-11T15:26:52;13.40;91.30
47226;DHT22;32965;64.142;-21.912;2022-08-11T15:29:38;13.40;91.30
47226;DHT22;32965;64.142;-21.912;2022-08-11T15:32:25;13.40;91.20
47226;DHT22;32965;64.142;-21.912;2022-08-11T15:35:11;13.50;90.90
47226;DHT22;32965;64.142;-21.912;2022-08-11T15:37:59;13.60;90.60
47226;DHT22;32965;64.142;-21.912;2022-08-11T15:40:30;13.60;90.10
47226;DHT22;32965;64.142;-21.912;2022-08-11T15:43:24;13.60;89.30
47226;DHT22;32965;64.142;-21.912;2022-08-11T15:46:15;13.60;89.60
47226;DHT22;32965;64.142;-21.912;2022-08-11T15:48:56;13.80;88.80
47226;DHT22;32965;64.142;-21.912;2022-08-11T15:51:39;13.90;88.10
47226;DHT22;32965;64.142;-21.912;2022-08-11T15:54:12;14.00;87.20
47226;DHT22;32965;64.142;-21.912;2022-08-11T15:56:43;14.00;85.60
47226;DHT22;32965;64.142;-21.912;2022-08-11T15:59:10;14.10;83.50
47226;DHT22;32965;64.142;-21.912;2022-08-11T16:01:54;14.00;83.80
47226;DHT22;32965;64.142;-21.912;2022-08-11T16:04:40;14.00;84.60
47226;DHT22;32965;64.142;-21.912;2022-08-11T16:07:14;14.00;84.90
47226;DHT22;32965;64.142;-21.912;2022-08-11T16:09:43;14.00;85.20
47226;DHT22;32965;64.142;-21.912;2022-08-11T16:12:24;14.00;85.50
47226;DHT22;32965;64.142;-21.912;2022-08-11T16:15:01;13.80;86.10
47226;DHT22;32965;64.142;-21.912;2022-08-11T16:17:51;13.80;86.50
47226;DHT22;32965;64.142;-21.912;2022-08-11T16:20:20;13.70;86.60
47226;DHT22;32965;64.142;-21.912;2022-08-11T16:22:48;13.50;85.40
47226;DHT22;32965;64.142;-21.912;2022-08-11T16:25:21;13.40;85.00
47226;DHT22;32965;64.142;-21.912;2022-08-11T16:27:59;13.30;84.90
47226;DHT22;32965;64.142;-21.912;2022-08-11T16:30:31;13.30;85.10
47226;DHT22;32965;64.142;-21.912;2022-08-11T16:32:58;13.10;85.90
47226;DHT22;32965;64.142;-21.912;2022-08-11T16:35:26;13.10;86.60
47226;DHT22;32965;64.142;-21.912;2022-08-11T16:38:12;13.10;87.40
47226;DHT22;32965;64.142;-21.912;2022-08-11T16:40:58;13.00;89.30
47226;DHT22;32965;64.142;-21.912;2022-08-11T16:43:27;12.90;90.50
47226;DHT22;32965;64.142;-21.912;2022-08-11T16:46:16;12.80;91.00
47226;DHT22;32965;64.142;-21.912;2022-08-11T16:49:07;12.80;91.70
47226;DHT22;32965;64.142;-21.912;2022-08-11T16:51:35;12.80;92.00
47226;DHT22;32965;64.142;-21.912;2022-08-11T16:54:02;12.70;91.90
47226;DHT22;32965;64.142;-21.912;2022-08-11T16:56:48;12.70;91.80
47226;DHT22;32965;64.142;-21.912;2022-08-11T16:59:18;12.60;91.70
47226;DHT22;32965;64.142;-21.912;2022-08-11T17:02:00;12.70;91.70
47226;DHT22;32965;64.142;-21.912;2022-08-11T17:04:51;12.70;91.80
47226;DHT22;32965;64.142;-21.912;2022-08-11T17:07:38;12.70;91.50
47226;DHT22;32965;64.142;-21.912;2022-08-11T17:10:28;12.60;91.60
47226;DHT22;32965;64.142;-21.912;2022-08-11T17:16:18;12.80;91.30
47226;DHT22;32965;64.142;-21.912;2022-08-11T17:21:38;12.80;90.70
47226;DHT22;32965;64.142;-21.912;2022-08-11T17:24:25;12.80;90.60
47226;DHT22;32965;64.142;-21.912;2022-08-11T17:26:54;12.70;91.00
47226;DHT22;32965;64.142;-21.912;2022-08-11T17:32:07;12.60;91.30
47226;DHT22;32965;64.142;-21.912;2022-08-11T17:34:57;12.60;91.50
47226;DHT22;32965;64.142;-21.912;2022-08-11T17:37:49;12.40;91.80
47226;DHT22;32965;64.142;-21.912;2022-08-11T17:40:20;12.30;92.20
47226;DHT22;32965;64.142;-21.912;2022-08-11T17:42:51;12.20;92.60
47226;DHT22;32965;64.142;-21.912;2022-08-11T17:45:39;12.20;93.00
47226;DHT22;32965;64.142;-21.912;2022-08-11T17:48:28;12.10;93.20
47226;DHT22;32965;64.142;-21.912;2022-08-11T17:51:04;12.10;93.80
47226;DHT22;32965;64.142;-21.912;2022-08-11T17:53:38;12.10;93.90
47226;DHT22;32965;64.142;-21.912;2022-08-11T17:56:24;12.10;94.10
47226;DHT22;32965;64.142;-21.912;2022-08-11T17:59:11;12.00;94.30
47226;DHT22;32965;64.142;-21.912;2022-08-11T18:01:59;12.00;94.50
47226;DHT22;32965;64.142;-21.912;2022-08-11T18:04:50;12.00;94.80
47226;DHT22;32965;64.142;-21.912;2022-08-11T18:07:18;12.00;95.30
47226;DHT22;32965;64.142;-21.912;2022-08-11T18:10:04;11.90;95.70
47226;DHT22;32965;64.142;-21.912;2022-08-11T18:12:50;11.70;96.00
47226;DHT22;32965;64.142;-21.912;2022-08-11T18:15:40;11.60;96.40
47226;DHT22;32965;64.142;-21.912;2022-08-11T18:18:25;11.60;96.70
47226;DHT22;32965;64.142;-21.912;2022-08-11T18:21:13;11.60;96.90
47226;DHT22;32965;64.142;-21.912;2022-08-11T18:24:04;11.70;97.00
47226;DHT22;32965;64.142;-21.912;2022-08-11T18:26:51;11.80;97.00
47226;DHT22;32965;64.142;-21.912;2022-08-11T18:29:39;11.90;97.00
47226;DHT22;32965;64.142;-21.912;2022-08-11T18:32:31;12.00;96.80
47226;DHT22;32965;64.142;-21.912;2022-08-11T18:35:19;12.00;96.70
47226;DHT22;32965;64.142;-21.912;2022-08-11T18:38:05;12.10;96.50
47226;DHT22;32965;64.142;-21.912;2022-08-11T18:40:53;12.10;96.10
47226;DHT22;32965;64.142;-21.912;2022-08-11T18:43:42;12.10;95.90
47226;DHT22;32965;64.142;-21.912;2022-08-11T18:46:32;12.20;95.80
47226;DHT22;32965;64.142;-21.912;2022-08-11T18:49:37;12.20;95.40
47226;DHT22;32965;64.142;-21.912;2022-08-11T18:52:22;12.20;95.40
47226;DHT22;32965;64.142;-21.912;2022-08-11T18:55:10;12.20;95.50
47226;DHT22;32965;64.142;-21.912;2022-08-11T18:57:57;12.20;95.40
47226;DHT22;32965;64.142;-21.912;2022-08-11T19:00:45;12.20;95.40
47226;DHT22;32965;64.142;-21.912;2022-08-11T19:03:31;12.10;95.20
47226;DHT22;32965;64.142;-21.912;2022-08-11T19:06:21;12.10;95.20
47226;DHT22;32965;64.142;-21.912;2022-08-11T19:09:11;12.10;95.00
47226;DHT22;32965;64.142;-21.912;2022-08-11T19:11:56;12.00;95.10
47226;DHT22;32965;64.142;-21.912;2022-08-11T19:14:42;12.00;95.30
47226;DHT22;32965;64.142;-21.912;2022-08-11T19:17:29;11.90;95.50
47226;DHT22;32965;64.142;-21.912;2022-08-11T19:20:18;12.00;95.40
47226;DHT22;32965;64.142;-21.912;2022-08-11T19:23:05;12.10;95.40
47226;DHT22;32965;64.142;-21.912;2022-08-11T19:25:53;12.10;95.30
47226;DHT22;32965;64.142;-21.912;2022-08-11T19:28:41;12.10;95.10
47226;DHT22;32965;64.142;-21.912;2022-08-11T19:31:28;11.20;94.90
47226;DHT22;32965;64.142;-21.912;2022-08-11T19:34:21;12.20;95.00
47226;DHT22;32965;64.142;-21.912;2022-08-11T19:37:07;12.20;94.80
47226;DHT22;32965;64.142;-21.912;2022-08-11T19:39:54;12.20;94.80
47226;DHT22;32965;64.142;-21.912;2022-08-11T19:42:42;12.20;94.90
47226;DHT22;32965;64.142;-21.912;2022-08-11T19:45:27;12.10;95.00
47226;DHT22;32965;64.142;-21.912;2022-08-11T19:48:11;12.10;95.30
47226;DHT22;32965;64.142;-21.912;2022-08-11T19:50:57;12.00;95.70
47226;DHT22;32965;64.142;-21.912;2022-08-11T19:53:42;12.00;95.90
47226;DHT22;32965;64.142;-21.912;2022-08-11T19:56:27;11.90;96.20
47226;DHT22;32965;64.142;-21.912;2022-08-11T19:59:13;11.80;96.40
47226;DHT22;32965;64.142;-21.912;2022-08-11T20:01:58;11.70;96.50